Time;durP1;ratioP1;P1;durP2;ratioP2;P2;SDS_P1;SDS_P2;PMS_P1;PMS_P2;Temp;Humidity;BMP_temperature;BMP_pressure;BME280_temperature;BME280_humidity;BME280_pressure;Samples;Min_cycle;Max_cycle;Signal;HPM_P1;HPM_P2
2022/03/05 00:00:46;;;;;;;25.15;10.63;;;;;;;;;;4908194;29;20087;-71
2022/03/05 00:03:12;;;;;;;24.77;10.13;;;;;;;;;;4907835;29;20044;-71
2022/03/05 00:05:39;;;;;;;17.55;8.80;;;;;;;;;;4907644;29;20127;-70
2022/03/05 00:08:05;;;;;;;19.60;9.13;;;;;;;;;;4920679;29;20050;-71
2022/03/05 00:10:30;;;;;;;23.30;11.63;;;;;;;;;;4907629;29;20036;-71
2022/03/05 00:12:56;;;;;;;22.88;11.23;;;;;;;;;;4907837;29;20067;-71
2022/03/05 00:15:23;;;;;;;23.73;9.88;;;;;;;;;;4907536;29;20048;-71
2022/03/05 00:17:49;;;;;;;23.75;13.10;;;;;;;;;;4890154;29;20055;-71
2022/03/05 00:20:16;;;;;;;11.95;6.38;;;;;;;;;;4910285;29;20028;-71
2022/03/05 00:22:41;;;;;;;26.08;12.65;;;;;;;;;;4912289;29;20035;-71
2022/03/05 00:25:07;;;;;;;26.02;11.82;;;;;;;;;;4907573;29;20560;-71
2022/03/05 00:27:33;;;;;;;21.13;10.63;;;;;;;;;;4907158;29;20751;-71
2022/03/05 00:29:59;;;;;;;21.02;10.68;;;;;;;;;;4895179;29;20044;-71
2022/03/05 00:32:24;;;;;;;19.15;9.70;;;;;;;;;;4907651;29;20028;-70
2022/03/05 00:34:50;;;;;;;22.40;12.40;;;;;;;;;;4907494;29;20062;-70
2022/03/05 00:37:15;;;;;;;26.73;11.68;;;;;;;;;;4906860;29;20032;-70
2022/03/05 00:39:41;;;;;;;23.48;12.43;;;;;;;;;;4910870;29;20035;-70
2022/03/05 00:42:07;;;;;;;26.23;10.65;;;;;;;;;;4916019;29;20093;-72
2022/03/05 00:44:33;;;;;;;22.17;10.45;;;;;;;;;;4907339;29;20040;-71
2022/03/05 00:46:59;;;;;;;19.98;9.55;;;;;;;;;;4907179;29;20039;-72
2022/03/05 00:49:25;;;;;;;25.50;12.02;;;;;;;;;;4906991;29;20036;-71
2022/03/05 00:51:52;;;;;;;23.63;11.20;;;;;;;;;;4912012;29;20036;-72
2022/03/05 00:54:20;;;;;;;25.75;11.07;;;;;;;;;;4914575;29;20556;-72
2022/03/05 00:56:46;;;;;;;18.95;10.13;;;;;;;;;;4906653;29;20064;-71
2022/03/05 00:59:12;;;;;;;24.25;11.30;;;;;;;;;;4907145;29;20036;-72
2022/03/05 01:01:38;;;;;;;24.63;11.55;;;;;;;;;;4906262;29;20135;-71
2022/03/05 01:04:04;;;;;;;24.67;10.50;;;;;;;;;;4923318;29;20041;-71
2022/03/05 01:06:31;;;;;;;22.65;10.10;;;;;;;;;;4912688;29;20050;-72
2022/03/05 01:09:05;;;;;;;22.38;10.30;;;;;;;;;;4906881;29;20494;-72
2022/03/05 01:11:31;;;;;;;25.75;11.00;;;;;;;;;;4912975;29;20040;-72
2022/03/05 01:13:57;;;;;;;22.50;9.73;;;;;;;;;;4911289;29;20056;-71
2022/03/05 01:16:22;;;;;;;21.05;10.90;;;;;;;;;;4907210;29;20040;-71
2022/03/05 01:18:48;;;;;;;22.98;12.57;;;;;;;;;;4910027;29;20088;-71
2022/03/05 01:21:13;;;;;;;26.92;12.23;;;;;;;;;;4915728;29;20059;-72
2022/03/05 01:23:39;;;;;;;23.42;11.88;;;;;;;;;;4914055;29;20055;-71
2022/03/05 01:26:05;;;;;;;27.40;12.13;;;;;;;;;;4917413;29;20071;-71
2022/03/05 01:28:30;;;;;;;27.88;13.07;;;;;;;;;;4906274;29;20112;-71
2022/03/05 01:30:56;;;;;;;23.65;10.75;;;;;;;;;;4906401;29;20394;-72
2022/03/05 01:33:21;;;;;;;22.73;11.07;;;;;;;;;;4893623;29;20040;-71
2022/03/05 01:35:48;;;;;;;24.02;11.27;;;;;;;;;;4888935;29;20134;-71
2022/03/05 01:38:14;;;;;;;18.92;9.38;;;;;;;;;;4913634;29;20092;-71
2022/03/05 01:40:40;;;;;;;23.23;11.02;;;;;;;;;;4906218;29;20055;-71
2022/03/05 01:43:06;;;;;;;21.50;10.20;;;;;;;;;;4906216;29;20036;-70
2022/03/05 01:45:31;;;;;;;24.02;11.60;;;;;;;;;;4906247;29;20743;-71
2022/03/05 01:47:57;;;;;;;23.88;11.38;;;;;;;;;;4911081;29;20031;-71
2022/03/05 01:50:23;;;;;;;25.90;12.52;;;;;;;;;;4905989;29;20040;-71
2022/03/05 01:52:49;;;;;;;26.30;9.75;;;;;;;;;;4906135;29;20564;-71
2022/03/05 01:55:14;;;;;;;25.95;13.02;;;;;;;;;;4905760;29;20067;-71
2022/03/05 01:57:40;;;;;;;22.55;11.43;;;;;;;;;;4905670;29;20375;-71
2022/03/05 02:00:08;;;;;;;25.45;11.75;;;;;;;;;;4911726;29;20552;-71
2022/03/05 02:02:37;;;;;;;26.63;13.47;;;;;;;;;;4914377;29;20036;-70
2022/03/05 02:05:04;;;;;;;29.70;12.20;;;;;;;;;;4908272;29;20379;-70
2022/03/05 02:07:30;;;;;;;76.18;26.98;;;;;;;;;;4917912;29;20050;-71
2022/03/05 02:09:55;;;;;;;27.90;11.35;;;;;;;;;;4919165;29;20039;-71
2022/03/05 02:12:30;;;;;;;23.77;12.20;;;;;;;;;;4901651;29;20071;-71
2022/03/05 02:14:58;;;;;;;26.63;13.07;;;;;;;;;;4906285;29;20054;-71
2022/03/05 02:17:24;;;;;;;18.15;9.40;;;;;;;;;;4905289;29;20095;-71
2022/03/05 02:19:49;;;;;;;22.98;11.48;;;;;;;;;;4915440;29;20043;-71
2022/03/05 02:22:15;;;;;;;26.52;12.65;;;;;;;;;;4904900;29;20068;-70
2022/03/05 02:24:40;;;;;;;25.05;10.32;;;;;;;;;;4913306;29;20084;-71
2022/03/05 02:27:07;;;;;;;22.52;10.20;;;;;;;;;;4904924;29;20060;-71
2022/03/05 02:29:33;;;;;;;20.38;10.63;;;;;;;;;;4890873;29;20062;-71
2022/03/05 02:32:00;;;;;;;28.30;14.07;;;;;;;;;;4907352;29;20050;-70
2022/03/05 02:34:25;;;;;;;23.30;11.63;;;;;;;;;;4915532;29;20103;-71
2022/03/05 02:36:51;;;;;;;23.95;12.25;;;;;;;;;;4908556;29;20044;-71
2022/03/05 02:39:16;;;;;;;22.75;11.38;;;;;;;;;;4905877;29;20036;-71
2022/03/05 02:41:42;;;;;;;22.00;10.23;;;;;;;;;;4905672;29;20040;-71
2022/03/05 02:44:09;;;;;;;31.70;12.90;;;;;;;;;;4904442;29;20036;-71
2022/03/05 02:46:36;;;;;;;21.45;11.55;;;;;;;;;;4905102;29;20198;-71
2022/03/05 02:49:03;;;;;;;23.55;10.93;;;;;;;;;;4912043;29;20126;-71
2022/03/05 02:51:29;;;;;;;26.00;13.30;;;;;;;;;;4912696;29;20080;-70
2022/03/05 02:53:55;;;;;;;22.48;11.88;;;;;;;;;;4911312;29;20094;-71
2022/03/05 02:56:21;;;;;;;27.65;13.40;;;;;;;;;;4904964;29;20055;-70
2022/03/05 02:58:46;;;;;;;25.70;12.57;;;;;;;;;;4905687;29;20044;-70
2022/03/05 03:01:12;;;;;;;26.98;11.75;;;;;;;;;;4907651;29;20036;-71
2022/03/05 03:03:38;;;;;;;22.52;11.13;;;;;;;;;;4922294;29;20051;-71
2022/03/05 03:06:04;;;;;;;28.60;13.68;;;;;;;;;;4906085;29;20036;-70
2022/03/05 03:08:29;;;;;;;22.55;12.18;;;;;;;;;;4912937;29;20047;-71
2022/03/05 03:10:55;;;;;;;30.77;13.18;;;;;;;;;;4906655;29;20095;-71
2022/03/05 03:13:20;;;;;;;25.27;12.30;;;;;;;;;;4915729;29;20032;-71
2022/03/05 03:15:46;;;;;;;25.33;12.20;;;;;;;;;;4907327;29;20086;-71
2022/03/05 03:18:11;;;;;;;27.88;13.00;;;;;;;;;;4914714;29;20036;-71
2022/03/05 03:20:37;;;;;;;23.40;11.73;;;;;;;;;;4918188;29;20054;-71
2022/03/05 03:23:02;;;;;;;28.35;13.15;;;;;;;;;;4913660;29;20044;-71
2022/03/05 03:25:27;;;;;;;27.60;13.30;;;;;;;;;;4923447;29;20028;-70
2022/03/05 03:27:53;;;;;;;30.02;12.00;;;;;;;;;;4916320;29;20058;-70
2022/03/05 03:30:19;;;;;;;27.02;12.65;;;;;;;;;;4923307;29;20040;-71
2022/03/05 03:32:45;;;;;;;25.02;11.55;;;;;;;;;;4908666;29;20051;-71
2022/03/05 03:35:12;;;;;;;25.05;12.75;;;;;;;;;;4908676;29;20044;-71
2022/03/05 03:37:38;;;;;;;25.98;10.85;;;;;;;;;;4907654;29;20073;-71
2022/03/05 03:40:07;;;;;;;36.90;16.52;;;;;;;;;;4908112;29;20032;-71
2022/03/05 03:42:33;;;;;;;33.13;14.57;;;;;;;;;;4914003;29;20932;-71
2022/03/05 03:44:58;;;;;;;24.48;12.48;;;;;;;;;;4908400;29;20042;-71
2022/03/05 03:47:24;;;;;;;34.95;15.90;;;;;;;;;;4907904;29;20563;-71
2022/03/05 03:49:50;;;;;;;26.98;12.15;;;;;;;;;;4913088;29;20047;-71
2022/03/05 03:52:15;;;;;;;25.10;11.75;;;;;;;;;;4925038;29;20056;-71
2022/03/05 03:54:41;;;;;;;26.25;11.57;;;;;;;;;;4920512;29;20406;-71
2022/03/05 03:57:07;;;;;;;21.58;11.25;;;;;;;;;;4915081;29;20055;-71
2022/03/05 03:59:32;;;;;;;28.42;12.45;;;;;;;;;;4907311;29;20047;-71
2022/03/05 04:01:58;;;;;;;17.88;9.25;;;;;;;;;;4919311;29;20062;-71
2022/03/05 04:04:23;;;;;;;27.92;13.48;;;;;;;;;;4915008;29;20071;-70
2022/03/05 04:09:33;;;;;;;32.58;14.90;;;;;;;;;;4907570;29;20109;-71
2022/03/05 04:11:58;;;;;;;26.98;12.25;;;;;;;;;;4887631;29;20084;-70
2022/03/05 04:14:24;;;;;;;21.08;10.35;;;;;;;;;;4915304;29;20508;-70
2022/03/05 04:16:50;;;;;;;29.35;13.40;;;;;;;;;;4907695;29;20478;-71
2022/03/05 04:19:15;;;;;;;30.48;13.80;;;;;;;;;;4907504;29;20047;-71
2022/03/05 04:21:41;;;;;;;29.45;13.63;;;;;;;;;;4905435;29;20051;-71
2022/03/05 04:24:06;;;;;;;30.70;13.15;;;;;;;;;;4906878;29;20220;-71
2022/03/05 04:26:32;;;;;;;26.38;13.63;;;;;;;;;;4919792;29;20035;-70
2022/03/05 04:28:57;;;;;;;33.47;14.98;;;;;;;;;;4910013;29;20048;-71
2022/03/05 04:31:23;;;;;;;24.42;12.98;;;;;;;;;;4907645;29;20117;-71
2022/03/05 04:33:48;;;;;;;33.28;16.25;;;;;;;;;;4917029;29;20032;-71
2022/03/05 04:36:14;;;;;;;30.55;16.27;;;;;;;;;;4907407;29;20040;-70
2022/03/05 04:38:39;;;;;;;30.10;15.15;;;;;;;;;;4907337;29;20165;-71
2022/03/05 04:41:05;;;;;;;29.58;14.13;;;;;;;;;;4907032;29;20051;-71
2022/03/05 04:43:31;;;;;;;31.50;15.63;;;;;;;;;;4906445;29;20040;-71
2022/03/05 04:45:57;;;;;;;35.65;17.55;;;;;;;;;;4907439;29;20998;-70
2022/03/05 04:48:22;;;;;;;39.65;12.20;;;;;;;;;;4914338;29;20078;-70
2022/03/05 04:50:48;;;;;;;31.73;13.80;;;;;;;;;;4906828;29;20051;-71
2022/03/05 04:53:15;;;;;;;34.05;15.55;;;;;;;;;;4907094;29;20103;-71
2022/03/05 04:55:41;;;;;;;17.48;9.50;;;;;;;;;;4905965;29;20044;-71
2022/03/05 04:58:06;;;;;;;41.83;16.35;;;;;;;;;;4921978;29;20035;-71
2022/03/05 05:00:31;;;;;;;31.00;14.20;;;;;;;;;;4906897;29;20044;-71
2022/03/05 05:02:57;;;;;;;32.83;15.25;;;;;;;;;;4925549;29;20047;-71
2022/03/05 05:05:24;;;;;;;31.00;14.48;;;;;;;;;;4910113;29;20753;-70
2022/03/05 05:07:49;;;;;;;30.75;14.88;;;;;;;;;;4924709;29;20039;-70
2022/03/05 05:10:15;;;;;;;30.90;14.35;;;;;;;;;;4908156;29;20054;-71
2022/03/05 05:12:41;;;;;;;33.80;16.13;;;;;;;;;;4913744;29;20047;-71
2022/03/05 05:15:07;;;;;;;34.17;14.35;;;;;;;;;;4908325;29;20040;-70
2022/03/05 05:17:36;;;;;;;28.35;14.80;;;;;;;;;;4910471;29;20052;-71
2022/03/05 05:20:03;;;;;;;33.90;15.52;;;;;;;;;;4913861;29;20560;-71
2022/03/05 05:22:30;;;;;;;31.55;14.52;;;;;;;;;;4910890;29;20488;-70
2022/03/05 05:24:55;;;;;;;24.92;11.60;;;;;;;;;;4909146;29;20050;-71
2022/03/05 05:27:21;;;;;;;40.50;16.67;;;;;;;;;;4905507;29;20063;-70
2022/03/05 05:29:47;;;;;;;34.95;14.55;;;;;;;;;;4905834;29;20164;-71
2022/03/05 05:32:12;;;;;;;32.75;14.75;;;;;;;;;;4905419;29;20047;-70
2022/03/05 05:34:39;;;;;;;37.25;16.50;;;;;;;;;;4905405;29;20059;-70
2022/03/05 05:37:05;;;;;;;30.60;13.85;;;;;;;;;;4913435;29;20089;-70
2022/03/05 05:39:30;;;;;;;34.35;14.35;;;;;;;;;;4910827;29;20035;-71
2022/03/05 05:41:56;;;;;;;36.08;16.40;;;;;;;;;;4903782;29;20079;-71
2022/03/05 05:44:21;;;;;;;29.65;14.63;;;;;;;;;;4905575;29;20036;-71
2022/03/05 05:46:47;;;;;;;31.77;15.68;;;;;;;;;;4904464;29;20044;-71
2022/03/05 05:49:12;;;;;;;38.78;19.02;;;;;;;;;;4873409;29;20047;-72
2022/03/05 05:51:38;;;;;;;37.00;16.92;;;;;;;;;;4915858;29;20056;-71
2022/03/05 05:54:04;;;;;;;33.33;16.10;;;;;;;;;;4915171;29;20047;-71
2022/03/05 05:56:29;;;;;;;31.52;15.05;;;;;;;;;;4912982;29;20047;-71
2022/03/05 05:58:56;;;;;;;44.30;20.15;;;;;;;;;;4914664;29;20091;-71
2022/03/05 06:01:22;;;;;;;31.30;14.82;;;;;;;;;;4910681;29;20050;-71
2022/03/05 06:03:48;;;;;;;34.70;15.38;;;;;;;;;;4920636;29;20154;-71
2022/03/05 06:06:14;;;;;;;36.67;15.75;;;;;;;;;;4908987;29;20039;-72
2022/03/05 06:08:40;;;;;;;28.80;15.85;;;;;;;;;;4909737;29;20036;-71
2022/03/05 06:11:06;;;;;;;33.63;16.25;;;;;;;;;;4912948;29;20049;-71
2022/03/05 06:13:32;;;;;;;33.85;15.55;;;;;;;;;;4905299;29;20095;-71
2022/03/05 06:15:57;;;;;;;34.08;16.88;;;;;;;;;;4909984;29;20052;-72
2022/03/05 06:18:22;;;;;;;35.30;16.25;;;;;;;;;;4907510;29;20047;-72
2022/03/05 06:20:49;;;;;;;37.97;16.90;;;;;;;;;;4905615;29;20048;-72
2022/03/05 06:23:14;;;;;;;30.10;14.02;;;;;;;;;;4904979;29;20032;-72
2022/03/05 06:25:40;;;;;;;40.03;16.65;;;;;;;;;;4913718;29;20453;-71
2022/03/05 06:28:05;;;;;;;40.17;18.15;;;;;;;;;;4906873;29;20442;-71
2022/03/05 06:30:31;;;;;;;49.78;19.08;;;;;;;;;;4905342;29;21042;-71
2022/03/05 06:32:56;;;;;;;40.97;17.40;;;;;;;;;;4905699;29;20070;-71
2022/03/05 06:35:22;;;;;;;31.58;15.50;;;;;;;;;;4908251;29;20091;-71
2022/03/05 06:37:48;;;;;;;38.22;17.65;;;;;;;;;;4909137;29;20036;-71
2022/03/05 06:40:13;;;;;;;31.80;14.75;;;;;;;;;;4905295;29;20496;-71
2022/03/05 06:42:40;;;;;;;32.05;16.50;;;;;;;;;;4905578;29;20048;-72
2022/03/05 06:45:08;;;;;;;36.25;15.73;;;;;;;;;;4893242;29;20042;-71
2022/03/05 06:47:37;;;;;;;16.83;8.55;;;;;;;;;;4904795;29;20115;-72
2022/03/05 06:50:04;;;;;;;36.03;17.13;;;;;;;;;;4904771;29;20032;-71
2022/03/05 06:52:30;;;;;;;34.58;17.17;;;;;;;;;;4905459;29;20040;-71
2022/03/05 06:54:56;;;;;;;22.48;10.98;;;;;;;;;;4904601;29;20237;-71
2022/03/05 06:57:21;;;;;;;39.00;17.25;;;;;;;;;;4910089;29;20047;-71
2022/03/05 06:59:47;;;;;;;28.40;14.10;;;;;;;;;;4905123;29;20051;-71
2022/03/05 07:02:12;;;;;;;21.92;11.18;;;;;;;;;;4905225;29;20048;-71
2022/03/05 07:04:38;;;;;;;26.48;13.02;;;;;;;;;;4905647;29;20047;-71
2022/03/05 07:07:04;;;;;;;39.42;16.33;;;;;;;;;;4906957;29;20040;-71
2022/03/05 07:09:29;;;;;;;30.70;15.52;;;;;;;;;;4912965;29;20051;-71
2022/03/05 07:11:54;;;;;;;31.70;16.60;;;;;;;;;;4925344;29;20043;-71
2022/03/05 07:14:20;;;;;;;28.73;14.52;;;;;;;;;;4907669;29;20055;-71
2022/03/05 07:16:45;;;;;;;30.45;13.32;;;;;;;;;;4915310;29;20036;-71
2022/03/05 07:19:11;;;;;;;29.55;13.70;;;;;;;;;;4910357;29;20461;-71
2022/03/05 07:21:36;;;;;;;32.42;17.63;;;;;;;;;;4908558;29;20199;-70
2022/03/05 07:24:03;;;;;;;33.65;16.00;;;;;;;;;;4909772;29;20048;-71
2022/03/05 07:26:29;;;;;;;28.88;14.32;;;;;;;;;;4914680;29;20673;-71
2022/03/05 07:28:54;;;;;;;26.33;12.05;;;;;;;;;;4910882;29;20820;-70
2022/03/05 07:31:20;;;;;;;29.55;14.45;;;;;;;;;;4912716;29;20521;-70
2022/03/05 07:33:45;;;;;;;27.90;14.25;;;;;;;;;;4919480;29;20156;-70
2022/03/05 07:36:11;;;;;;;34.75;14.88;;;;;;;;;;4907926;29;20139;-70
2022/03/05 07:38:40;;;;;;;30.92;15.45;;;;;;;;;;4908466;29;20146;-71
2022/03/05 07:41:06;;;;;;;28.38;14.88;;;;;;;;;;4922214;29;20042;-71
2022/03/05 07:43:32;;;;;;;33.80;16.02;;;;;;;;;;4913668;29;20031;-70
2022/03/05 07:45:57;;;;;;;29.83;13.93;;;;;;;;;;4909549;29;20064;-71
2022/03/05 07:48:23;;;;;;;27.58;14.55;;;;;;;;;;4906431;29;20036;-70
2022/03/05 07:50:49;;;;;;;18.67;10.50;;;;;;;;;;4910872;29;20052;-70
2022/03/05 07:53:15;;;;;;;30.40;14.45;;;;;;;;;;4916350;29;20039;-71
2022/03/05 07:55:41;;;;;;;30.52;15.40;;;;;;;;;;4907113;29;20036;-71
2022/03/05 07:58:06;;;;;;;30.35;15.27;;;;;;;;;;4914642;29;20733;-71
2022/03/05 08:00:32;;;;;;;28.70;14.48;;;;;;;;;;4907744;29;20048;-71
2022/03/05 08:02:57;;;;;;;28.00;14.18;;;;;;;;;;4913518;29;20091;-71
2022/03/05 08:05:23;;;;;;;25.30;13.43;;;;;;;;;;4922650;29;20032;-72
2022/03/05 08:07:49;;;;;;;26.92;14.20;;;;;;;;;;4907905;29;20707;-71
2022/03/05 08:10:15;;;;;;;28.90;16.13;;;;;;;;;;4907594;29;20028;-71
2022/03/05 08:12:41;;;;;;;24.55;14.23;;;;;;;;;;4911154;29;20036;-71
2022/03/05 08:15:08;;;;;;;29.35;15.23;;;;;;;;;;4909175;29;20439;-71
2022/03/05 08:17:33;;;;;;;33.50;15.57;;;;;;;;;;4906504;29;20430;-71
2022/03/05 08:19:59;;;;;;;28.77;14.00;;;;;;;;;;4908395;29;20051;-71
2022/03/05 08:22:24;;;;;;;26.88;13.73;;;;;;;;;;4914541;29;20044;-71
2022/03/05 08:24:50;;;;;;;24.50;13.82;;;;;;;;;;4914435;29;20374;-71
2022/03/05 08:27:16;;;;;;;24.17;12.63;;;;;;;;;;4914494;29;20092;-72
2022/03/05 08:29:41;;;;;;;27.15;14.52;;;;;;;;;;4915013;29;20048;-71
2022/03/05 08:32:07;;;;;;;29.35;15.35;;;;;;;;;;4907353;29;20038;-70
2022/03/05 08:34:33;;;;;;;27.67;14.18;;;;;;;;;;4909576;29;20039;-71
2022/03/05 08:36:58;;;;;;;26.25;14.40;;;;;;;;;;4909545;29;20379;-71
2022/03/05 08:39:25;;;;;;;24.40;13.57;;;;;;;;;;4907589;29;20035;-71
2022/03/05 08:41:51;;;;;;;26.98;14.85;;;;;;;;;;4910254;29;20036;-71
2022/03/05 08:44:16;;;;;;;29.10;16.95;;;;;;;;;;4906531;29;20436;-70
2022/03/05 08:46:42;;;;;;;21.42;13.65;;;;;;;;;;4920676;29;20118;-71
2022/03/05 08:49:07;;;;;;;26.15;14.48;;;;;;;;;;4897167;29;20054;-71
2022/03/05 08:51:33;;;;;;;26.73;14.52;;;;;;;;;;4890317;29;20048;-72
2022/03/05 08:53:58;;;;;;;20.20;11.43;;;;;;;;;;4906461;29;20150;-71
2022/03/05 08:56:24;;;;;;;27.58;15.05;;;;;;;;;;4907254;29;20477;-70
2022/03/05 08:58:49;;;;;;;23.95;13.23;;;;;;;;;;4910356;29;20047;-71
2022/03/05 09:01:15;;;;;;;28.70;14.10;;;;;;;;;;4911850;29;20043;-72
2022/03/05 09:03:41;;;;;;;17.38;10.57;;;;;;;;;;4907492;29;20028;-71
2022/03/05 09:06:07;;;;;;;25.52;13.48;;;;;;;;;;4914293;29;20043;-71
2022/03/05 09:08:33;;;;;;;22.40;11.95;;;;;;;;;;4909102;29;20047;-71
2022/03/05 09:10:58;;;;;;;22.48;14.32;;;;;;;;;;4913528;29;20032;-71
2022/03/05 09:13:24;;;;;;;22.70;13.55;;;;;;;;;;4910767;29;20058;-71
2022/03/05 09:15:49;;;;;;;23.35;13.48;;;;;;;;;;4910673;29;20132;-71
2022/03/05 09:18:15;;;;;;;28.00;16.17;;;;;;;;;;4906225;29;20490;-71
2022/03/05 09:20:43;;;;;;;46.08;13.80;;;;;;;;;;4906265;29;20075;-71
2022/03/05 09:23:08;;;;;;;23.73;12.23;;;;;;;;;;4888749;29;20067;-69
2022/03/05 09:25:34;;;;;;;28.55;15.68;;;;;;;;;;4910425;29;20875;-71
2022/03/05 09:27:59;;;;;;;27.13;14.43;;;;;;;;;;4904518;29;20036;-71
2022/03/05 09:30:25;;;;;;;25.83;12.95;;;;;;;;;;4910783;29;20080;-71
2022/03/05 09:32:50;;;;;;;22.98;13.18;;;;;;;;;;4906401;29;20040;-70
2022/03/05 09:35:16;;;;;;;23.60;13.95;;;;;;;;;;4906145;29;20215;-70
2022/03/05 09:37:41;;;;;;;22.25;13.05;;;;;;;;;;4906039;29;20044;-70
2022/03/05 09:40:08;;;;;;;23.42;12.57;;;;;;;;;;4905458;29;20032;-70
2022/03/05 09:42:34;;;;;;;21.08;11.75;;;;;;;;;;4911305;29;20146;-70
2022/03/05 09:45:01;;;;;;;16.42;8.00;;;;;;;;;;4917210;29;20476;-70
2022/03/05 09:47:27;;;;;;;21.20;11.40;;;;;;;;;;4922424;29;20134;-71
2022/03/05 09:49:54;;;;;;;17.70;10.18;;;;;;;;;;4916124;29;20192;-71
2022/03/05 09:52:19;;;;;;;20.35;12.30;;;;;;;;;;4914637;29;20075;-70
2022/03/05 09:54:44;;;;;;;20.50;10.95;;;;;;;;;;4917052;29;20083;-70
2022/03/05 09:57:12;;;;;;;16.52;10.25;;;;;;;;;;4910520;29;20047;-71
2022/03/05 09:59:38;;;;;;;15.15;8.27;;;;;;;;;;4905814;29;20032;-71
2022/03/05 10:02:05;;;;;;;19.50;10.15;;;;;;;;;;4905926;29;21014;-71
2022/03/05 10:04:31;;;;;;;21.75;11.02;;;;;;;;;;4904852;29;20696;-71
2022/03/05 10:07:12;;;;;;;21.88;10.63;;;;;;;;;;4905485;29;20813;-71
2022/03/05 10:09:38;;;;;;;19.27;11.63;;;;;;;;;;4906097;29;20123;-71
2022/03/05 10:12:25;;;;;;;20.35;9.07;;;;;;;;;;4905461;29;20048;-71
2022/03/05 10:15:10;;;;;;;15.18;9.50;;;;;;;;;;4904044;29;20076;-71
2022/03/05 10:17:49;;;;;;;14.18;9.02;;;;;;;;;;4904825;29;20043;-71
2022/03/05 10:20:14;;;;;;;18.95;10.65;;;;;;;;;;4908327;29;20468;-70
2022/03/05 10:22:53;;;;;;;18.02;9.07;;;;;;;;;;4905823;29;20079;-71
2022/03/05 10:25:40;;;;;;;16.63;9.60;;;;;;;;;;4904687;29;20031;-71
2022/03/05 10:28:12;;;;;;;18.10;9.70;;;;;;;;;;4907658;29;20465;-70
2022/03/05 10:30:41;;;;;;;9.50;5.78;;;;;;;;;;4917626;29;20032;-71
2022/03/05 10:33:07;;;;;;;15.15;8.70;;;;;;;;;;4911028;29;20453;-71
2022/03/05 10:35:33;;;;;;;15.05;9.43;;;;;;;;;;4907612;29;20044;-71
2022/03/05 10:37:59;;;;;;;14.32;9.10;;;;;;;;;;4914026;29;20103;-70
2022/03/05 10:40:31;;;;;;;8.80;5.28;;;;;;;;;;4911681;29;20032;-71
2022/03/05 10:43:01;;;;;;;;;;;;;;;;;;4906012;29;20063;-71
2022/03/05 10:45:29;;;;;;;12.88;7.50;;;;;;;;;;4905297;29;19919;-71
2022/03/05 10:47:56;;;;;;;14.93;8.68;;;;;;;;;;4909701;29;20028;-70
2022/03/05 10:50:28;;;;;;;14.95;8.50;;;;;;;;;;4905240;29;20482;-71
2022/03/05 10:52:56;;;;;;;17.40;8.75;;;;;;;;;;4906428;29;20095;-71
2022/03/05 10:55:26;;;;;;;16.15;8.55;;;;;;;;;;4912426;29;20095;-71
2022/03/05 10:57:58;;;;;;;13.18;7.35;;;;;;;;;;4909523;29;20039;-70
2022/03/05 11:00:24;;;;;;;;;;;;;;;;;;4905367;29;20036;-71
2022/03/05 11:02:51;;;;;;;13.95;7.07;;;;;;;;;;4905733;29;19927;-71
2022/03/05 11:05:19;;;;;;;13.13;6.47;;;;;;;;;;4906096;29;20038;-70
2022/03/05 11:07:47;;;;;;;9.38;5.30;;;;;;;;;;4918178;29;20047;-71
2022/03/05 11:10:14;;;;;;;12.38;5.82;;;;;;;;;;4913587;29;20146;-71
2022/03/05 11:12:41;;;;;;;9.98;6.03;;;;;;;;;;4913545;29;20063;-71
2022/03/05 11:15:08;;;;;;;7.03;4.75;;;;;;;;;;4903886;29;20040;-71
2022/03/05 11:17:34;;;;;;;12.82;6.40;;;;;;;;;;4903892;29;20036;-70
2022/03/05 11:20:01;;;;;;;9.48;5.53;;;;;;;;;;4909987;29;20111;-71
2022/03/05 11:22:27;;;;;;;11.68;6.72;;;;;;;;;;4904595;29;20040;-70
2022/03/05 11:24:53;;;;;;;13.48;6.93;;;;;;;;;;4907414;29;20051;-71
2022/03/05 11:27:19;;;;;;;12.98;6.82;;;;;;;;;;4912557;29;20040;-70
2022/03/05 11:29:52;;;;;;;9.70;6.38;;;;;;;;;;4904488;29;20051;-70
2022/03/05 11:32:18;;;;;;;11.70;6.80;;;;;;;;;;4904112;29;20953;-71
2022/03/05 11:34:46;;;;;;;12.25;7.22;;;;;;;;;;4909356;29;20063;-70
2022/03/05 11:37:30;;;;;;;8.95;5.47;;;;;;;;;;4906774;29;20048;-71
2022/03/05 11:39:56;;;;;;;12.70;6.25;;;;;;;;;;4914341;29;20048;-70
2022/03/05 11:42:34;;;;;;;10.82;6.75;;;;;;;;;;4904094;29;20028;-71
2022/03/05 11:45:20;;;;;;;9.00;6.05;;;;;;;;;;4904197;29;20565;-71
2022/03/05 11:47:45;;;;;;;9.45;5.72;;;;;;;;;;4903775;29;20048;-70
2022/03/05 11:50:13;;;;;;;10.75;6.75;;;;;;;;;;4904814;29;20046;-71
2022/03/05 11:52:39;;;;;;;10.98;6.80;;;;;;;;;;4906494;29;20040;-71
2022/03/05 11:55:15;;;;;;;11.27;6.88;;;;;;;;;;4924486;29;20122;-71
2022/03/05 11:58:06;;;;;;;6.65;4.38;;;;;;;;;;4912205;29;20055;-70
2022/03/05 12:00:33;;;;;;;12.23;7.32;;;;;;;;;;4907397;29;20032;-70
2022/03/05 12:03:01;;;;;;;12.90;8.02;;;;;;;;;;4906375;29;20091;-71
2022/03/05 12:05:38;;;;;;;16.67;8.52;;;;;;;;;;4918203;29;20044;-71
2022/03/05 12:08:11;;;;;;;8.50;5.43;;;;;;;;;;4892305;29;20245;-71
2022/03/05 12:10:38;;;;;;;12.48;7.82;;;;;;;;;;4907711;29;20059;-71
2022/03/05 12:13:06;;;;;;;12.48;7.40;;;;;;;;;;4907555;29;20044;-71
2022/03/05 12:15:35;;;;;;;11.27;6.85;;;;;;;;;;4912214;29;20048;-70
2022/03/05 12:18:02;;;;;;;11.77;6.40;;;;;;;;;;4915003;29;20052;-70
2022/03/05 12:20:34;;;;;;;11.57;6.90;;;;;;;;;;4907761;29;20032;-71
2022/03/05 12:23:15;;;;;;;11.15;6.53;;;;;;;;;;4907541;29;20539;-71
2022/03/05 12:25:44;;;;;;;14.52;6.70;;;;;;;;;;4907140;29;20040;-71
2022/03/05 12:28:23;;;;;;;14.55;7.43;;;;;;;;;;4906826;29;20048;-71
2022/03/05 12:30:52;;;;;;;12.32;8.07;;;;;;;;;;4907579;29;20040;-71
2022/03/05 12:33:18;;;;;;;15.40;7.07;;;;;;;;;;4907537;29;20416;-71
2022/03/05 12:35:46;;;;;;;12.85;7.40;;;;;;;;;;4907239;29;20055;-70
2022/03/05 12:38:20;;;;;;;13.23;7.60;;;;;;;;;;4906307;29;20127;-70
2022/03/05 12:40:46;;;;;;;11.63;7.10;;;;;;;;;;4907471;29;20099;-70
2022/03/05 12:43:12;;;;;;;10.23;6.03;;;;;;;;;;4907177;29;20048;-71
2022/03/05 12:45:43;;;;;;;12.65;7.03;;;;;;;;;;4907656;29;20171;-70
2022/03/05 12:48:14;;;;;;;16.50;7.03;;;;;;;;;;4911756;29;20047;-71
2022/03/05 12:50:44;;;;;;;11.40;7.47;;;;;;;;;;4906904;29;20044;-70
2022/03/05 12:53:13;;;;;;;12.88;6.30;;;;;;;;;;4906802;29;20044;-70
2022/03/05 12:55:43;;;;;;;13.85;7.18;;;;;;;;;;4907056;29;20044;-70
2022/03/05 12:58:23;;;;;;;13.07;8.18;;;;;;;;;;4905987;29;20075;-70
2022/03/05 13:01:01;;;;;;;13.35;7.85;;;;;;;;;;4905712;29;20091;-71
2022/03/05 13:03:34;;;;;;;14.57;8.88;;;;;;;;;;4906815;29;20083;-71
2022/03/05 13:06:01;;;;;;;13.38;7.63;;;;;;;;;;4906454;29;20052;-71
2022/03/05 13:08:29;;;;;;;12.95;8.23;;;;;;;;;;4906833;29;20044;-71
2022/03/05 13:11:07;;;;;;;13.68;7.57;;;;;;;;;;4905404;29;20048;-71
2022/03/05 13:13:35;;;;;;;11.93;8.32;;;;;;;;;;4912282;29;20055;-70
2022/03/05 13:16:02;;;;;;;12.85;7.47;;;;;;;;;;4906732;29;20071;-70
2022/03/05 13:18:28;;;;;;;13.75;7.25;;;;;;;;;;4906569;29;20405;-70
2022/03/05 13:20:59;;;;;;;11.25;7.03;;;;;;;;;;4908090;29;20036;-70
2022/03/05 13:23:25;;;;;;;16.23;7.17;;;;;;;;;;4906532;29;20056;-70
2022/03/05 13:25:50;;;;;;;13.10;7.25;;;;;;;;;;4905999;29;20039;-71
2022/03/05 13:28:20;;;;;;;13.63;7.47;;;;;;;;;;4906556;29;20091;-71
2022/03/05 13:30:56;;;;;;;14.77;7.75;;;;;;;;;;4906594;29;20122;-70
2022/03/05 13:33:35;;;;;;;15.35;8.50;;;;;;;;;;4908200;29;20032;-70
2022/03/05 13:36:24;;;;;;;11.85;6.90;;;;;;;;;;4911373;29;20138;-70
2022/03/05 13:38:51;;;;;;;13.80;6.50;;;;;;;;;;4905650;29;20043;-70
2022/03/05 13:41:25;;;;;;;11.55;7.22;;;;;;;;;;4906607;29;20028;-70
2022/03/05 13:43:50;;;;;;;12.55;6.22;;;;;;;;;;4914691;29;20044;-70
2022/03/05 13:46:19;;;;;;;11.57;6.53;;;;;;;;;;4906236;29;20048;-71
2022/03/05 13:48:52;;;;;;;12.77;7.28;;;;;;;;;;4906166;29;20048;-70
2022/03/05 13:51:21;;;;;;;14.82;7.50;;;;;;;;;;4905595;29;20044;-70
2022/03/05 13:54:08;;;;;;;15.60;8.73;;;;;;;;;;4911352;29;20692;-70
2022/03/05 13:56:42;;;;;;;16.55;8.57;;;;;;;;;;4904227;29;20383;-71
2022/03/05 13:59:08;;;;;;;12.70;7.80;;;;;;;;;;4905162;29;20079;-70
2022/03/05 14:01:36;;;;;;;13.30;7.30;;;;;;;;;;4889161;29;20074;-70
2022/03/05 14:04:07;;;;;;;13.70;7.78;;;;;;;;;;4905752;29;20048;-70
2022/03/05 14:06:46;;;;;;;12.45;6.40;;;;;;;;;;4910837;29;20036;-71
2022/03/05 14:09:37;;;;;;;17.08;9.95;;;;;;;;;;4905024;29;20091;-70
2022/03/05 14:12:04;;;;;;;11.45;6.78;;;;;;;;;;4905605;29;20040;-71
2022/03/05 14:14:40;;;;;;;14.63;8.95;;;;;;;;;;4906175;29;20087;-71
2022/03/05 14:17:09;;;;;;;15.05;8.70;;;;;;;;;;4906279;29;20047;-71
2022/03/05 14:19:35;;;;;;;11.48;7.25;;;;;;;;;;4911042;29;20043;-70
2022/03/05 14:22:05;;;;;;;12.95;7.57;;;;;;;;;;4905683;29;20044;-71
2022/03/05 14:24:31;;;;;;;13.75;7.80;;;;;;;;;;4905842;29;20051;-71
2022/03/05 14:26:56;;;;;;;11.25;6.90;;;;;;;;;;4905704;29;20876;-71